Time;durP1;ratioP1;P1;durP2;ratioP2;P2;SDS_P1;SDS_P2;PMS_P1;PMS_P2;Temp;Humidity;BMP_temperature;BMP_pressure;BME280_temperature;BME280_humidity;BME280_pressure;Samples;Min_cycle;Max_cycle;Signal;HPM_P1;HPM_P2
2022/05/25 00:02:08;;;;;;;3.27;2.87;;;;;;;-143.84;83.89;45064.31;5111353;28;20888;-71
2022/05/25 00:04:36;;;;;;;3.97;2.90;;;;;;;-143.84;83.79;45081.44;5111207;28;20497;-71
2022/05/25 00:07:03;;;;;;;4.63;2.90;;;;;;;-143.84;83.55;45039.53;5111220;28;20443;-71
2022/05/25 00:09:30;;;;;;;3.37;2.73;;;;;;;-143.84;83.73;45068.13;5111060;28;20818;-71
2022/05/25 00:11:58;;;;;;;2.87;2.67;;;;;;;-143.84;83.77;45070.00;5110264;28;20918;-70
2022/05/25 00:14:26;;;;;;;3.27;3.07;;;;;;;-143.84;83.74;45068.13;5111053;28;20963;-71
2022/05/25 00:16:54;;;;;;;3.60;3.30;;;;;;;-143.84;83.94;45079.53;5110735;28;20485;-71
2022/05/25 00:22:05;;;;;;;3.20;3.00;;;;;;;-143.84;84.05;45089.06;5111218;28;20424;-71
2022/05/25 00:24:32;;;;;;;5.43;3.17;;;;;;;-143.84;84.19;45081.44;5110726;28;20485;-71
2022/05/25 00:26:59;;;;;;;18.27;2.90;;;;;;;-143.84;84.20;45052.88;5110808;28;20443;-71
2022/05/25 00:29:28;;;;;;;3.40;3.10;;;;;;;-143.84;84.32;45085.25;5110728;28;21319;-71
2022/05/25 00:31:55;;;;;;;3.70;3.30;;;;;;;-143.84;84.30;45073.81;5110805;28;20433;-71
2022/05/25 00:34:22;;;;;;;3.20;3.00;;;;;;;-143.84;84.20;45054.78;5110423;28;20436;-71
2022/05/25 00:36:49;;;;;;;3.73;3.27;;;;;;;-143.84;84.23;45081.44;5109865;28;20555;-71
2022/05/25 00:39:16;;;;;;;3.40;3.10;;;;;;;-143.84;84.57;45077.63;5110851;28;20438;-70
2022/05/25 00:41:43;;;;;;;3.30;2.97;;;;;;;-143.84;85.14;45075.72;5110296;28;20439;-71
2022/05/25 00:44:11;;;;;;;7.60;3.23;;;;;;;-143.84;85.43;45064.31;5109829;28;21013;-71
2022/05/25 00:46:40;;;;;;;3.83;3.40;;;;;;;-143.84;84.94;45056.69;5109552;28;20514;-71
2022/05/25 00:49:17;;;;;;;8.87;3.83;;;;;;;-143.84;85.02;45050.97;5110225;28;20858;-71
2022/05/25 00:51:49;;;;;;;2.90;2.70;;;;;;;-143.84;85.92;45035.75;5110414;28;20441;-71
2022/05/25 00:54:21;;;;;;;3.50;3.30;;;;;;;-143.84;86.22;45064.31;5110182;28;20424;-71
2022/05/25 00:56:51;;;;;;;3.67;3.37;;;;;;;-143.84;85.85;45054.78;5110186;28;20539;-71
2022/05/25 00:59:22;;;;;;;4.00;3.70;;;;;;;-143.84;85.67;45075.72;5110106;28;20447;-71
2022/05/25 01:01:51;;;;;;;5.27;3.03;;;;;;;-143.84;85.13;45037.66;5110071;28;20435;-71
2022/05/25 01:04:19;;;;;;;2.77;2.57;;;;;;;-143.84;85.07;45070.00;5109992;28;20447;-71
2022/05/25 01:07:04;;;;;;;2.70;2.50;;;;;;;-143.84;84.80;45068.13;5109977;28;20442;-71
2022/05/25 01:09:42;;;;;;;3.80;3.20;;;;;;;-143.84;84.32;45062.41;5109875;28;20449;-71
2022/05/25 01:12:21;;;;;;;2.93;2.73;;;;;;;-143.84;84.12;45077.63;5110401;28;20439;-71
2022/05/25 01:15:03;;;;;;;7.53;3.20;;;;;;;-143.84;84.26;45079.53;5109773;28;20489;-71
2022/05/25 01:17:44;;;;;;;6.97;3.90;;;;;;;-143.84;84.56;45075.72;5110016;28;20479;-71
2022/05/25 01:20:25;;;;;;;5.00;2.67;;;;;;;-143.84;84.30;45066.22;5109754;28;20437;-70
2022/05/25 01:23:25;;;;;;;3.07;2.87;;;;;;;-143.84;84.54;45052.88;5109843;28;20861;-71
2022/05/25 01:26:37;;;;;;;4.40;3.40;;;;;;;-143.84;85.34;45068.13;5109712;28;20505;-71
2022/05/25 01:29:15;;;;;;;4.83;3.37;;;;;;;-143.84;86.81;45083.34;5006994;28;20459;-71
2022/05/25 01:31:51;;;;;;;6.50;3.50;;;;;;;-143.84;86.78;45070.00;5103199;28;20454;-71
2022/05/25 01:34:28;;;;;;;3.93;3.63;;;;;;;-143.84;87.08;45035.75;5109149;28;20447;-71
2022/05/25 01:37:04;;;;;;;7.47;3.83;;;;;;;-143.84;89.00;45026.22;5109865;28;20501;-71
2022/05/25 01:39:36;;;;;;;4.03;3.73;;;;;;;-143.84;90.61;45005.28;5109620;28;20445;-71
2022/05/25 01:42:10;;;;;;;4.90;3.90;;;;;;;-143.84;91.35;45010.97;5109731;28;20435;-70
2022/05/25 01:44:42;;;;;;;3.50;3.10;;;;;;;-143.84;91.11;44986.22;5109665;28;20808;-70
2022/05/25 01:47:11;;;;;;;4.40;3.90;;;;;;;-143.84;90.64;45022.41;5111046;28;20507;-77
2022/05/25 01:49:45;;;;;;;5.37;3.00;;;;;;;-143.84;90.01;45028.13;5110614;28;20967;-77
2022/05/25 01:52:15;;;;;;;5.93;3.03;;;;;;;-143.84;89.76;45016.69;5111458;28;20498;-77
2022/05/25 01:54:50;;;;;;;3.90;3.70;;;;;;;-143.84;89.19;45049.06;5111453;28;20435;-77
2022/05/25 01:57:19;;;;;;;3.77;3.50;;;;;;;-143.84;89.52;45026.22;5111258;28;20504;-77
2022/05/25 01:59:46;;;;;;;8.13;3.90;;;;;;;-143.84;89.52;45030.03;5111280;28;20525;-77
2022/05/25 02:05:02;;;;;;;3.40;2.47;;;;;;;-143.84;89.12;45037.66;5110630;28;20426;-76
2022/05/25 02:07:43;;;;;;;4.43;2.70;;;;;;;-143.84;88.70;45026.22;5110714;28;20446;-77
2022/05/25 02:10:28;;;;;;;3.87;3.57;;;;;;;-143.84;88.19;45049.06;5110392;28;20539;-77
2022/05/25 02:13:23;;;;;;;3.70;3.20;;;;;;;-143.84;88.20;45024.31;5110524;28;21194;-77
2022/05/25 02:16:02;;;;;;;4.17;3.83;;;;;;;-143.84;88.91;45058.59;5109827;28;20466;-76
2022/05/25 02:18:37;;;;;;;3.80;3.60;;;;;;;-143.84;90.14;45041.44;5110437;28;20447;-76
2022/05/25 02:21:10;;;;;;;3.50;3.30;;;;;;;-143.84;89.97;45010.97;5109630;28;20440;-77
2022/05/25 02:23:43;;;;;;;6.13;4.90;;;;;;;-143.84;89.74;44993.84;5110777;28;20443;-77
2022/05/25 02:26:16;;;;;;;2.87;2.77;;;;;;;-143.84;89.98;45041.44;5111539;28;20528;-77
2022/05/25 02:28:47;;;;;;;3.70;3.37;;;;;;;-143.84;89.70;45024.31;5110706;28;21303;-77
2022/05/25 02:31:19;;;;;;;3.33;3.13;;;;;;;-143.84;88.84;45035.75;5108862;28;20435;-77
2022/05/25 02:33:52;;;;;;;5.20;3.07;;;;;;;-143.84;88.48;45033.84;5110710;28;20446;-77
2022/05/25 02:36:20;;;;;;;3.60;3.30;;;;;;;-143.84;88.47;45047.16;5111077;28;20521;-76
2022/05/25 02:38:47;;;;;;;3.57;3.27;;;;;;;-143.84;88.58;45056.69;5111153;28;20930;-76
2022/05/25 02:41:26;;;;;;;3.53;3.00;;;;;;;-143.84;88.42;45075.72;5111021;28;20443;-76
2022/05/25 02:43:54;;;;;;;3.63;3.33;;;;;;;-143.84;87.90;45045.25;5111273;28;21124;-76
2022/05/25 02:46:21;;;;;;;5.30;3.53;;;;;;;-143.84;88.11;45062.41;5111428;28;20442;-76
2022/05/25 02:48:49;;;;;;;6.63;3.27;;;;;;;-143.84;88.15;45030.03;5111040;28;21061;-76
2022/05/25 02:51:17;;;;;;;3.80;3.50;;;;;;;-143.84;88.44;45037.66;5108732;28;20447;-76
2022/05/25 02:53:45;;;;;;;3.97;3.60;;;;;;;-143.84;89.09;45035.75;5109802;28;20499;-76
2022/05/25 02:56:12;;;;;;;4.40;3.10;;;;;;;-143.84;89.38;45045.25;5110142;28;20493;-77
2022/05/25 02:58:40;;;;;;;6.40;3.73;;;;;;;-143.84;88.72;45003.38;5111090;28;20434;-76
2022/05/25 03:01:07;;;;;;;3.80;3.10;;;;;;;-143.84;88.33;45024.31;5114091;28;20446;-76
2022/05/25 03:03:35;;;;;;;4.10;3.80;;;;;;;-143.84;87.92;45052.88;5114748;28;20428;-76
2022/05/25 03:06:05;;;;;;;3.97;3.77;;;;;;;-143.84;88.66;45070.00;5114547;28;20766;-77
2022/05/25 03:08:32;;;;;;;3.93;3.63;;;;;;;-143.84;89.16;45041.44;5114653;28;20448;-77
2022/05/25 03:10:59;;;;;;;8.17;4.03;;;;;;;-143.84;88.93;45050.97;5114408;28;20432;-76
2022/05/25 03:13:26;;;;;;;6.30;3.97;;;;;;;-143.84;88.59;45068.13;5114725;28;20861;-77
2022/05/25 03:15:53;;;;;;;4.77;4.17;;;;;;;-143.84;88.35;45049.06;5114209;28;20500;-76
2022/05/25 03:18:20;;;;;;;4.20;3.90;;;;;;;-143.84;87.88;45054.78;5114103;28;20568;-76
2022/05/25 03:20:49;;;;;;;4.67;4.37;;;;;;;-143.84;88.60;45049.06;5114371;28;20481;-76
2022/05/25 03:23:18;;;;;;;11.13;3.37;;;;;;;-143.84;89.26;45028.13;5114093;28;20531;-76
2022/05/25 03:25:46;;;;;;;4.47;4.10;;;;;;;-143.84;89.10;45050.97;5114804;28;20440;-76
2022/05/25 03:28:13;;;;;;;3.93;3.67;;;;;;;-143.84;89.39;45024.31;5103081;27;20446;-77
2022/05/25 03:30:43;;;;;;;4.20;3.80;;;;;;;-143.84;89.70;45014.78;5093375;28;20441;-76
2022/05/25 03:33:10;;;;;;;8.70;4.50;;;;;;;-143.84;91.10;44990.03;5091783;28;20438;-76
2022/05/25 03:35:38;;;;;;;4.07;3.77;;;;;;;-143.84;89.19;45014.78;5091296;28;20446;-72
2022/05/25 03:38:05;;;;;;;4.83;4.20;;;;;;;-143.84;88.16;44999.56;5090997;28;20482;-72
2022/05/25 03:40:34;;;;;;;3.87;3.67;;;;;;;-143.84;87.21;45020.50;5098935;28;20457;-72
2022/05/25 03:43:01;;;;;;;4.60;4.20;;;;;;;-143.84;85.49;45039.53;5111608;28;20491;-71
2022/05/25 03:45:29;;;;;;;3.20;3.00;;;;;;;-143.84;81.50;45050.97;5111697;28;20913;-71
2022/05/25 03:47:56;;;;;;;3.90;2.90;;;;;;;-143.84;78.59;45031.94;5111531;28;20503;-71
2022/05/25 03:50:24;;;;;;;7.50;3.20;;;;;;;-143.84;75.18;45033.84;5111607;28;20433;-70
2022/05/25 03:52:51;;;;;;;2.37;2.23;;;;;;;-143.84;71.68;45047.16;5111072;28;20522;-71
2022/05/25 03:55:18;;;;;;;4.87;2.83;;;;;;;-143.84;68.82;44991.94;5111339;28;20435;-72
2022/05/25 03:57:47;;;;;;;2.27;2.10;;;;;;;-143.84;66.31;45022.41;5110860;28;20505;-72
2022/05/25 04:00:14;;;;;;;3.30;3.00;;;;;;;-143.84;64.46;45009.09;5111456;28;20504;-71
2022/05/25 04:02:42;;;;;;;4.97;2.50;;;;;;;-143.84;61.55;45009.09;5110311;28;20434;-71
2022/05/25 04:05:09;;;;;;;5.10;2.40;;;;;;;-143.84;60.01;45039.53;5111262;28;21013;-72
2022/05/25 04:07:38;;;;;;;3.60;2.10;;;;;;;-143.84;57.75;44997.66;5110565;28;20459;-72
2022/05/25 04:10:07;;;;;;;4.53;2.10;;;;;;;-143.84;58.24;45020.50;5109187;28;20439;-72
2022/05/25 04:12:35;;;;;;;2.60;2.23;;;;;;;-143.84;57.84;45020.50;5107382;28;20447;-72
2022/05/25 04:15:04;;;;;;;3.43;2.20;;;;;;;-143.84;58.25;45024.31;5108367;28;20487;-72
2022/05/25 04:17:33;;;;;;;5.53;2.30;;;;;;;-143.84;56.08;45012.88;5108858;28;20486;-72
2022/05/25 04:20:00;;;;;;;3.80;2.10;;;;;;;-143.84;54.83;45007.19;5109739;28;20504;-72
2022/05/25 04:22:29;;;;;;;3.13;2.17;;;;;;;-143.84;53.92;45020.50;5110446;28;21374;-72
2022/05/25 04:24:56;;;;;;;2.90;2.10;;;;;;;-143.84;52.94;44995.75;5110516;28;20451;-72
2022/05/25 04:27:24;;;;;;;6.13;2.17;;;;;;;-143.84;52.73;45012.88;5110360;28;20443;-72
2022/05/25 04:29:51;;;;;;;2.30;2.10;;;;;;;-143.84;54.30;45007.19;5110379;28;20837;-72
2022/05/25 04:32:20;;;;;;;8.20;2.20;;;;;;;-143.84;54.00;45014.78;5110324;28;20495;-72
2022/05/25 04:34:47;;;;;;;4.50;2.63;;;;;;;-143.84;55.05;45001.47;5110477;28;20447;-72
2022/05/25 04:39:59;;;;;;;4.37;2.33;;;;;;;-143.84;56.06;44999.56;5110571;28;20430;-72
2022/05/25 04:42:29;;;;;;;7.00;3.13;;;;;;;-143.84;54.81;44993.84;5110334;28;20443;-72
2022/05/25 04:44:59;;;;;;;6.23;2.23;;;;;;;-143.84;55.43;45014.78;5110239;28;20547;-72
2022/05/25 04:47:29;;;;;;;2.77;2.50;;;;;;;-143.84;56.08;45052.88;5110284;28;20438;-72
2022/05/25 04:49:57;;;;;;;2.70;2.47;;;;;;;-143.84;57.45;45018.59;5110292;28;20451;-72
2022/05/25 04:52:24;;;;;;;3.43;2.53;;;;;;;-143.84;56.33;44995.75;5109968;28;20439;-72
2022/05/25 04:54:52;;;;;;;4.60;2.07;;;;;;;-143.84;55.67;44984.31;5110028;28;20442;-72
2022/05/25 04:57:20;;;;;;;5.60;2.20;;;;;;;-143.84;55.76;45009.09;5109733;28;20555;-72
2022/05/25 04:59:48;;;;;;;2.60;2.10;;;;;;;-143.84;55.23;44995.75;5110019;28;20439;-70
2022/05/25 05:02:16;;;;;;;3.90;2.07;;;;;;;-143.84;56.68;45018.59;5109588;28;20438;-72
2022/05/25 05:04:44;;;;;;;2.33;2.00;;;;;;;-143.84;56.72;45020.50;5109879;28;20438;-71
2022/05/25 05:07:12;;;;;;;5.37;2.20;;;;;;;-143.84;56.39;45030.03;5109851;28;20442;-72
2022/05/25 05:09:41;;;;;;;6.53;2.03;;;;;;;-143.84;58.56;44982.41;5109854;28;21057;-72
2022/05/25 05:12:10;;;;;;;4.23;2.20;;;;;;;-143.84;59.50;44993.84;5110043;28;20443;-71
2022/05/25 05:14:38;;;;;;;5.70;2.43;;;;;;;-143.84;59.36;45014.78;5109705;28;20475;-71
2022/05/25 05:17:07;;;;;;;3.60;1.80;;;;;;;-143.84;59.71;45009.09;5109577;28;20570;-71
2022/05/25 05:19:35;;;;;;;3.53;2.10;;;;;;;-143.84;59.85;45009.09;5109598;28;20844;-71
2022/05/25 05:22:04;;;;;;;4.07;2.13;;;;;;;-143.84;60.98;45035.75;5109322;28;20448;-71
2022/05/25 05:24:33;;;;;;;2.63;2.43;;;;;;;-143.84;61.34;45020.50;5109561;28;20508;-72
2022/05/25 05:27:00;;;;;;;2.17;2.07;;;;;;;-143.84;60.75;45014.78;5109512;28;20431;-71
2022/05/25 05:29:30;;;;;;;2.90;2.70;;;;;;;-143.84;60.50;44999.56;5109318;28;20436;-71
2022/05/25 05:31:58;;;;;;;3.10;2.90;;;;;;;-143.84;61.79;45022.41;5109194;28;20470;-72
2022/05/25 05:34:28;;;;;;;5.70;2.30;;;;;;;-143.84;61.08;45012.88;5109035;28;20521;-71
2022/05/25 05:37:00;;;;;;;4.33;2.37;;;;;;;-143.84;60.36;45009.09;5108645;28;20496;-71
2022/05/25 05:39:33;;;;;;;2.77;2.20;;;;;;;-143.84;57.86;45014.78;5109765;28;20442;-72
2022/05/25 05:42:04;;;;;;;2.90;2.40;;;;;;;-143.84;59.28;45010.97;5109433;28;20458;-71
2022/05/25 05:44:36;;;;;;;2.50;2.30;;;;;;;-143.84;59.12;45028.13;5109079;28;20427;-71
2022/05/25 05:47:08;;;;;;;4.23;2.80;;;;;;;-143.84;60.67;45007.19;5109305;28;20439;-71
2022/05/25 05:49:36;;;;;;;3.90;2.40;;;;;;;-143.84;58.39;45020.50;5109066;28;20512;-71
2022/05/25 05:52:04;;;;;;;1.90;1.80;;;;;;;-143.84;59.64;44993.84;5109426;28;20857;-71
2022/05/25 05:54:33;;;;;;;3.80;2.33;;;;;;;-143.84;60.87;45028.13;5109328;28;21008;-71
2022/05/25 05:57:02;;;;;;;2.80;2.07;;;;;;;-143.84;60.44;45012.88;5108896;28;20447;-71
2022/05/25 05:59:29;;;;;;;7.43;2.83;;;;;;;-143.84;62.00;45016.69;5108665;28;20435;-71
2022/05/25 06:01:56;;;;;;;3.40;2.40;;;;;;;-143.84;63.29;45012.88;5108744;28;20496;-71
2022/05/25 06:04:23;;;;;;;5.10;2.17;;;;;;;-143.84;59.82;45014.78;5108833;28;20443;-71
2022/05/25 06:06:50;;;;;;;6.57;2.17;;;;;;;-143.84;60.29;44988.13;5109012;28;20960;-71
2022/05/25 06:09:18;;;;;;;4.07;1.80;;;;;;;-143.84;57.06;45016.69;5109001;28;20439;-72
2022/05/25 06:11:47;;;;;;;5.50;1.93;;;;;;;-143.84;55.37;44984.31;5108917;28;20442;-72
2022/05/25 06:14:14;;;;;;;3.13;2.40;;;;;;;-143.84;54.55;44993.84;5109090;28;20483;-72
2022/05/25 06:19:29;;;;;;;3.83;2.03;;;;;;;-143.84;49.29;45014.78;5109039;28;20512;-72
2022/05/25 06:22:02;;;;;;;4.30;2.20;;;;;;;-143.84;50.70;44982.41;5108659;28;20458;-72
2022/05/25 06:24:31;;;;;;;6.83;2.20;;;;;;;-143.84;51.57;44988.13;5108726;28;20492;-72
2022/05/25 06:27:00;;;;;;;4.67;2.30;;;;;;;-143.84;51.70;44974.81;5108375;28;20808;-72
2022/05/25 06:29:27;;;;;;;3.03;2.70;;;;;;;-143.84;50.84;44971.00;5109023;28;20447;-72
2022/05/25 06:31:54;;;;;;;3.57;2.33;;;;;;;-143.84;51.27;44988.13;5108588;28;20435;-72
2022/05/25 06:34:24;;;;;;;6.87;2.57;;;;;;;-143.84;49.76;44995.75;5108968;28;20504;-72
2022/05/25 06:36:52;;;;;;;2.80;2.60;;;;;;;-143.84;52.55;44984.31;5112468;28;20553;-72
2022/05/25 06:39:19;;;;;;;2.77;2.20;;;;;;;-143.84;49.84;45007.19;5112000;28;20531;-72
2022/05/25 06:41:46;;;;;;;5.43;2.10;;;;;;;-143.84;49.83;44984.31;5112269;28;20449;-72
2022/05/25 06:44:15;;;;;;;3.20;2.60;;;;;;;-143.84;47.20;44984.31;5112354;28;20439;-72
2022/05/25 06:46:42;;;;;;;2.57;2.33;;;;;;;-143.84;50.17;44969.09;5112482;28;20442;-72
2022/05/25 06:49:09;;;;;;;5.27;2.10;;;;;;;-143.84;47.72;44971.00;5112453;28;20834;-72
2022/05/25 06:51:38;;;;;;;2.53;2.20;;;;;;;-143.84;49.45;44972.91;5112252;28;21021;-72
2022/05/25 06:54:06;;;;;;;8.03;2.50;;;;;;;-143.84;45.69;44984.31;5112385;28;20775;-72
2022/05/25 06:56:33;;;;;;;4.93;2.30;;;;;;;-143.84;47.81;44980.53;5112241;28;20843;-71
2022/05/25 06:59:00;;;;;;;3.87;2.30;;;;;;;-143.84;46.67;44984.31;5112018;28;20479;-72
2022/05/25 07:01:29;;;;;;;5.23;2.10;;;;;;;-143.84;50.19;44990.03;5111671;28;20470;-71
2022/05/25 07:03:56;;;;;;;2.40;2.00;;;;;;;-143.84;49.53;44980.53;5112159;28;21114;-70
2022/05/25 07:06:25;;;;;;;2.40;2.20;;;;;;;-143.84;49.81;44984.31;5112304;28;20503;-72
2022/05/25 07:08:52;;;;;;;6.33;2.17;;;;;;;-143.84;50.22;44986.22;5112083;28;20504;-72
2022/05/25 07:11:21;;;;;;;3.53;2.30;;;;;;;-143.84;49.43;45009.09;5112101;28;20431;-72
2022/05/25 07:13:48;;;;;;;9.17;2.87;;;;;;;-143.84;53.06;45005.28;5111660;28;20475;-72
2022/05/25 07:16:18;;;;;;;4.13;2.10;;;;;;;-143.84;47.21;44971.00;5111627;28;20450;-72
2022/05/25 07:18:48;;;;;;;2.53;2.33;;;;;;;-143.84;49.92;44980.53;5111868;28;20901;-72
2022/05/25 07:21:17;;;;;;;1.97;1.87;;;;;;;-143.84;47.15;44990.03;5112149;28;20465;-72
2022/05/25 07:23:46;;;;;;;1.63;1.53;;;;;;;-143.84;48.55;44972.91;5111733;28;20451;-72
2022/05/25 07:26:14;;;;;;;6.30;3.00;;;;;;;-143.84;53.50;44980.53;5111771;28;20447;-72
2022/05/25 07:28:42;;;;;;;2.37;1.93;;;;;;;-143.84;51.27;44997.66;5111563;28;20972;-72
2022/05/25 07:31:12;;;;;;;4.43;1.80;;;;;;;-143.84;54.64;44980.53;5112045;28;20423;-71
2022/05/25 07:33:45;;;;;;;2.80;2.17;;;;;;;-143.84;51.09;44984.31;5111549;28;20496;-71
2022/05/25 07:36:15;;;;;;;3.73;2.40;;;;;;;-143.84;50.08;44976.72;5111337;28;20439;-72
2022/05/25 07:38:48;;;;;;;6.90;2.83;;;;;;;-143.84;51.71;44965.28;5111417;28;20509;-71
2022/05/25 07:41:17;;;;;;;3.10;1.87;;;;;;;-143.84;50.56;44961.47;5111666;28;20443;-71
2022/05/25 07:43:47;;;;;;;5.67;2.30;;;;;;;-143.84;46.99;44951.97;5110971;28;20451;-71
2022/05/25 07:46:14;;;;;;;4.53;2.67;;;;;;;-143.84;47.03;45003.38;5110711;28;20451;-71
2022/05/25 07:48:41;;;;;;;3.00;2.00;;;;;;;-143.84;46.68;44963.38;5109261;28;20545;-71
2022/05/25 07:51:09;;;;;;;5.40;2.20;;;;;;;-143.84;47.63;44986.22;5109510;28;20830;-71
2022/05/25 07:56:22;;;;;;;6.10;2.00;;;;;;;-143.84;49.20;44972.91;5108193;28;20438;-73
2022/05/25 07:58:49;;;;;;;2.80;2.50;;;;;;;-143.84;48.08;44993.84;5109161;28;20482;-73
2022/05/25 08:05:43;;;;;;;6.53;3.30;;;;;;;-143.84;46.90;44982.41;5106719;28;20438;-73
2022/05/25 08:06:54;;;;;;;3.00;1.97;;;;;;;-143.84;45.95;44965.28;5107798;28;20442;-73
2022/05/25 08:09:23;;;;;;;3.50;2.40;;;;;;;-143.84;48.00;44961.47;5108950;28;20475;-73
2022/05/25 08:11:51;;;;;;;7.03;2.77;;;;;;;-143.84;48.01;44991.94;5109880;28;20835;-73
2022/05/25 08:14:18;;;;;;;2.80;2.00;;;;;;;-143.84;48.68;44990.03;5106012;28;20483;-73
2022/05/25 08:16:45;;;;;;;7.23;2.53;;;;;;;-143.84;48.87;44988.13;5108970;28;20455;-73
2022/05/25 08:19:12;;;;;;;4.70;1.77;;;;;;;-143.84;47.84;44974.81;5108074;28;20487;-73
2022/05/25 08:21:39;;;;;;;5.93;1.80;;;;;;;-143.84;45.96;45009.09;5108620;28;20477;-73
2022/05/25 08:24:07;;;;;;;3.80;2.10;;;;;;;-143.84;45.81;45009.09;5108879;28;20465;-73
2022/05/25 08:26:36;;;;;;;4.90;2.47;;;;;;;-143.84;47.39;44982.41;5108241;28;20447;-73
2022/05/25 08:29:03;;;;;;;3.37;1.80;;;;;;;-143.84;47.46;45003.38;5107782;28;20451;-74
2022/05/25 08:31:30;;;;;;;6.70;2.23;;;;;;;-143.84;48.11;45007.19;5107987;28;20450;-73
2022/05/25 08:33:57;;;;;;;4.27;2.20;;;;;;;-143.84;49.91;44980.53;5108343;28;20446;-73
2022/05/25 08:36:25;;;;;;;6.00;2.20;;;;;;;-143.84;50.72;44974.81;5108792;28;20449;-73
2022/05/25 08:38:55;;;;;;;4.20;2.17;;;;;;;-143.84;51.35;44963.38;5105271;28;20497;-73
2022/05/25 08:41:27;;;;;;;3.30;2.10;;;;;;;-143.84;51.52;44984.31;5105038;28;20520;-73
2022/05/25 08:43:58;;;;;;;2.30;2.10;;;;;;;-143.84;50.76;44982.41;5105230;28;20455;-73
2022/05/25 08:46:27;;;;;;;3.00;1.50;;;;;;;-143.84;51.90;45022.41;5108244;28;20451;-73
2022/05/25 08:48:54;;;;;;;1.70;1.60;;;;;;;-143.84;51.58;44999.56;5104234;28;20434;-73
2022/05/25 08:51:25;;;;;;;4.60;2.10;;;;;;;-143.84;49.64;44997.66;5108777;28;20439;-73
2022/05/25 08:53:54;;;;;;;2.53;2.43;;;;;;;-143.84;50.11;44990.03;5105199;28;20474;-73
2022/05/25 08:56:28;;;;;;;3.07;2.03;;;;;;;-143.84;50.98;44997.66;5108271;28;20451;-72
2022/05/25 08:59:03;;;;;;;3.30;2.80;;;;;;;-143.84;51.83;45001.47;5104546;28;21031;-72
2022/05/25 09:01:35;;;;;;;2.50;2.30;;;;;;;-143.84;52.70;45022.41;5106188;28;20454;-72
2022/05/25 09:04:09;;;;;;;7.50;2.07;;;;;;;-143.84;51.84;44986.22;5105998;28;20443;-73
2022/05/25 09:06:47;;;;;;;4.43;2.27;;;;;;;-143.84;50.31;44986.22;5107834;28;20442;-73
2022/05/25 09:09:24;;;;;;;2.47;2.27;;;;;;;-143.84;52.75;45010.97;5107453;28;20451;-73
2022/05/25 09:11:58;;;;;;;1.80;1.70;;;;;;;-143.84;50.22;44982.41;5107591;28;20490;-73
2022/05/25 09:14:35;;;;;;;4.40;2.63;;;;;;;-143.84;51.86;44997.66;5107779;28;20479;-73
2022/05/25 09:17:10;;;;;;;4.03;2.23;;;;;;;-143.84;53.27;44986.22;5105676;28;20473;-73
2022/05/25 09:19:42;;;;;;;2.80;2.07;;;;;;;-143.84;53.90;44986.22;5107217;28;20488;-73
2022/05/25 09:22:13;;;;;;;2.93;2.20;;;;;;;-143.84;53.18;45001.47;5108118;28;21044;-73
2022/05/25 09:24:40;;;;;;;2.43;2.23;;;;;;;-143.84;52.26;45009.09;5108020;28;20505;-73
2022/05/25 09:27:11;;;;;;;3.13;2.17;;;;;;;-143.84;54.24;45030.03;5107608;28;20450;-73
2022/05/25 09:29:41;;;;;;;2.63;2.43;;;;;;;-143.84;56.58;45014.78;5105941;28;20455;-73
2022/05/25 09:32:22;;;;;;;2.30;2.20;;;;;;;-143.84;56.17;45018.59;5107530;28;20976;-73
2022/05/25 09:34:55;;;;;;;3.00;2.80;;;;;;;-143.84;57.48;45022.41;5105605;28;20804;-73
2022/05/25 09:37:38;;;;;;;3.93;2.33;;;;;;;-143.84;61.17;45049.06;5105559;28;20455;-73
2022/05/25 09:40:10;;;;;;;3.40;2.57;;;;;;;-143.84;61.96;45022.41;5106797;28;20536;-73
2022/05/25 09:42:39;;;;;;;2.50;2.30;;;;;;;-143.84;61.80;44984.31;5106943;28;20510;-73
2022/05/25 09:45:15;;;;;;;4.50;3.00;;;;;;;-143.84;62.26;44980.53;5107240;28;20442;-73
2022/05/25 09:47:44;;;;;;;3.07;2.87;;;;;;;-143.84;62.74;44988.13;5108156;28;20827;-73
2022/05/25 09:50:18;;;;;;;8.40;2.30;;;;;;;-143.84;63.44;45041.44;5105969;28;20455;-73
2022/05/25 09:52:50;;;;;;;2.87;2.60;;;;;;;-143.84;62.54;45018.59;5106918;28;20508;-73
2022/05/25 09:55:25;;;;;;;5.10;2.50;;;;;;;-143.84;62.61;45014.78;5106888;28;20827;-73
2022/05/25 09:57:59;;;;;;;2.77;2.57;;;;;;;-143.84;62.77;45033.84;5103832;28;20446;-73
2022/05/25 10:00:44;;;;;;;6.40;2.63;;;;;;;-143.84;61.92;45026.22;5104475;28;20486;-73
2022/05/25 10:03:14;;;;;;;2.50;2.40;;;;;;;-143.84;59.77;45024.31;5107287;28;20443;-73
2022/05/25 10:05:55;;;;;;;2.80;2.60;;;;;;;-143.84;63.54;45007.19;5106985;28;20851;-73
2022/05/25 10:08:30;;;;;;;3.33;2.30;;;;;;;-143.84;61.72;45030.03;5103994;28;20451;-73
2022/05/25 10:11:00;;;;;;;2.50;2.30;;;;;;;-143.84;61.19;45012.88;5107136;28;20545;-73
2022/05/25 10:13:29;;;;;;;3.37;2.23;;;;;;;-143.84;61.51;45022.41;5111730;28;20521;-73
2022/05/25 10:16:01;;;;;;;4.40;2.30;;;;;;;-143.84;60.78;45012.88;5087602;28;20448;-73
2022/05/25 10:18:39;;;;;;;2.90;2.23;;;;;;;-143.84;63.95;45030.03;5088123;28;21007;-73
2022/05/25 10:21:11;;;;;;;2.20;2.03;;;;;;;-143.84;61.63;45022.41;5090656;28;20974;-73
2022/05/25 10:23:42;;;;;;;2.40;2.30;;;;;;;-143.84;63.26;45030.03;5085130;28;20537;-73
2022/05/25 10:26:15;;;;;;;2.73;2.53;;;;;;;-143.84;61.07;45026.22;5073933;28;20448;-73
2022/05/25 10:28:49;;;;;;;2.17;1.83;;;;;;;-143.84;63.93;45007.19;5081763;28;21020;-73
2022/05/25 10:37:13;;;;;;;2.00;1.90;;;;;;;-143.84;61.36;45016.69;5092650;28;20483;-73
2022/05/25 10:39:43;;;;;;;2.30;2.10;;;;;;;-143.84;60.47;44997.66;5092324;28;20482;-73
2022/05/25 10:42:19;;;;;;;7.33;2.33;;;;;;;-143.84;61.89;45037.66;5072249;28;20456;-73
2022/05/25 10:44:59;;;;;;;13.20;2.00;;;;;;;-143.84;65.59;45028.13;5071786;28;20452;-73
2022/05/25 10:47:44;;;;;;;7.10;2.00;;;;;;;-143.84;63.93;45014.78;5070947;28;20954;-73
2022/05/25 10:50:17;;;;;;;2.03;1.83;;;;;;;-143.84;65.99;45018.59;5071704;28;20498;-74
2022/05/25 10:52:48;;;;;;;1.80;1.70;;;;;;;-143.84;62.29;45031.94;5072084;28;20449;-77
2022/05/25 10:55:15;;;;;;;3.27;1.97;;;;;;;-143.84;62.49;45030.03;5072569;28;20428;-77
2022/05/25 10:58:13;;;;;;;3.37;1.87;;;;;;;-143.84;64.45;45026.22;5072393;28;20448;-77
2022/05/25 11:00:55;;;;;;;4.07;2.00;;;;;;;-143.84;66.11;45009.09;5072170;28;21084;-77
2022/05/25 11:04:00;;;;;;;3.27;2.20;;;;;;;-143.84;70.57;45024.31;5071355;28;20428;-77
2022/05/25 11:06:48;;;;;;;2.00;1.90;;;;;;;-143.84;66.81;45014.78;5071543;28;20766;-77
2022/05/25 11:09:32;;;;;;;5.10;2.00;;;;;;;-143.84;65.56;45049.06;5071437;28;20440;-71
2022/05/25 11:12:07;;;;;;;2.23;1.90;;;;;;;-143.84;65.15;45030.03;5071483;28;20445;-70
2022/05/25 11:14:49;;;;;;;3.30;1.70;;;;;;;-143.84;64.64;45039.53;5073384;28;20467;-71
2022/05/25 11:17:39;;;;;;;1.80;1.70;;;;;;;-143.84;66.12;45045.25;5089795;28;20448;-71
2022/05/25 11:20:19;;;;;;;3.00;2.23;;;;;;;-143.84;66.55;45016.69;5089756;28;20483;-71
2022/05/25 11:23:06;;;;;;;4.33;2.13;;;;;;;-143.84;67.25;45010.97;5090614;28;20438;-71
2022/05/25 11:26:05;;;;;;;1.87;1.67;;;;;;;-143.84;64.96;45031.94;5090036;28;20460;-71
2022/05/25 11:28:45;;;;;;;4.70;2.23;;;;;;;-143.84;67.30;45049.06;5089547;28;20444;-71
2022/05/25 11:31:28;;;;;;;3.47;2.00;;;;;;;-143.84;69.42;45020.50;5090387;28;20451;-71
2022/05/25 11:34:22;;;;;;;2.67;2.03;;;;;;;-143.84;65.13;45022.41;5090102;28;20432;-71
2022/05/25 11:37:12;;;;;;;3.63;1.70;;;;;;;-143.84;65.42;45014.78;5090322;28;20443;-71
2022/05/25 11:39:51;;;;;;;3.70;2.17;;;;;;;-143.84;66.99;45024.31;5090013;28;20486;-71
2022/05/25 11:42:32;;;;;;;3.83;2.00;;;;;;;-143.84;67.64;45024.31;5090052;28;20498;-71
2022/05/25 11:45:09;;;;;;;3.43;2.23;;;;;;;-143.84;69.34;45010.97;5090376;28;20440;-70
2022/05/25 11:47:51;;;;;;;3.63;2.13;;;;;;;-143.84;70.36;45039.53;5090150;28;20432;-71
2022/05/25 11:50:31;;;;;;;4.27;2.10;;;;;;;-143.84;68.17;45010.97;5089969;28;20448;-71
2022/05/25 11:53:34;;;;;;;2.47;1.83;;;;;;;-143.84;65.42;45026.22;5090057;28;20505;-71
2022/05/25 11:56:17;;;;;;;3.40;2.20;;;;;;;-143.84;66.91;45035.75;5090143;28;20440;-71
2022/05/25 11:59:00;;;;;;;1.73;1.63;;;;;;;-143.84;66.98;45049.06;5089574;28;20497;-71
2022/05/25 12:01:33;;;;;;;3.30;2.13;;;;;;;-143.84;68.52;45007.19;5089487;28;20438;-71